Time;durP1;ratioP1;P1;durP2;ratioP2;P2;SDS_P1;SDS_P2;PMS_P1;PMS_P2;Temp;Humidity;BMP_temperature;BMP_pressure;BME280_temperature;BME280_humidity;BME280_pressure;Samples;Min_cycle;Max_cycle;Signal;HPM_P1;HPM_P2
2022/07/23 00:00:26;;;;;;;6.55;3.53;;;;;;;19.49;78.56;100965.09;2024340;29;20060;-66
2022/07/23 00:01:28;;;;;;;8.32;4.32;;;;;;;19.48;78.50;100968.94;2028430;29;20052;-66
2022/07/23 00:02:37;;;;;;;8.68;3.85;;;;;;;19.48;78.47;100966.22;2024438;29;20055;-66
2022/07/23 00:03:43;;;;;;;10.10;3.70;;;;;;;19.47;78.33;100970.88;2010801;29;20045;-66
2022/07/23 00:04:49;;;;;;;7.93;3.95;;;;;;;19.46;78.34;100963.81;2002184;29;20084;-66
2022/07/23 00:05:52;;;;;;;5.85;3.65;;;;;;;19.46;78.54;100961.09;2011109;29;20049;-67
2022/07/23 00:06:56;;;;;;;7.65;4.38;;;;;;;19.45;78.67;100960.31;2016628;29;20048;-67
2022/07/23 00:08:00;;;;;;;8.25;3.63;;;;;;;19.44;78.63;100961.41;2010246;29;20046;-67
2022/07/23 00:09:10;;;;;;;6.82;3.85;;;;;;;19.43;78.63;100961.75;2023971;29;20060;-67
2022/07/23 00:10:14;;;;;;;6.40;3.70;;;;;;;19.43;78.64;100959.03;2032269;29;20056;-67
2022/07/23 00:11:21;;;;;;;6.60;3.80;;;;;;;19.43;78.70;100961.75;2016702;29;20068;-67
2022/07/23 00:12:25;;;;;;;8.82;4.07;;;;;;;19.42;78.64;100968.34;2010417;29;20525;-66
2022/07/23 00:13:29;;;;;;;6.15;3.92;;;;;;;19.40;78.69;100968.66;2011476;29;20637;-67
2022/07/23 00:14:30;;;;;;;6.78;3.80;;;;;;;19.40;78.70;100973.31;2009130;29;20505;-67
2022/07/23 00:15:37;;;;;;;12.15;4.25;;;;;;;19.38;78.69;100970.09;2003010;29;20054;-66
2022/07/23 00:16:41;;;;;;;8.85;4.57;;;;;;;19.38;78.63;100972.84;2003621;29;20050;-66
2022/07/23 00:17:46;;;;;;;10.30;4.18;;;;;;;19.36;78.74;100966.94;2028693;29;20536;-67
2022/07/23 00:18:51;;;;;;;10.32;4.30;;;;;;;19.35;78.83;100960.66;2039554;29;20106;-66
2022/07/23 00:19:56;;;;;;;8.60;4.38;;;;;;;19.35;78.92;100959.84;2016787;29;20048;-66
2022/07/23 00:21:01;;;;;;;9.88;4.45;;;;;;;19.34;78.91;100961.78;2016368;29;20045;-67
2022/07/23 00:22:05;;;;;;;9.75;4.15;;;;;;;19.33;79.18;100967.59;2025300;29;20040;-66
2022/07/23 00:23:11;;;;;;;8.43;4.68;;;;;;;19.33;79.12;100962.13;2024999;29;20048;-66
2022/07/23 00:24:17;;;;;;;6.82;4.22;;;;;;;19.31;79.14;100965.16;2025279;29;20044;-66
2022/07/23 00:25:23;;;;;;;9.18;4.32;;;;;;;19.31;79.37;100967.09;2032391;29;20040;-66
2022/07/23 00:26:30;;;;;;;10.52;4.40;;;;;;;19.31;nan;100969.81;2031341;29;20052;-66
2022/07/23 00:27:40;;;;;;;6.85;4.20;;;;;;;19.31;79.28;100975.28;2025516;29;20049;-66
2022/07/23 00:28:44;;;;;;;7.63;4.30;;;;;;;19.30;79.30;100971.75;2017843;29;20053;-66
2022/07/23 00:29:48;;;;;;;7.90;4.63;;;;;;;19.30;79.53;100979.16;2017631;29;20147;-66
2022/07/23 00:30:51;;;;;;;8.60;4.03;;;;;;;19.31;79.37;100975.28;2031869;29;20058;-66
2022/07/23 00:31:57;;;;;;;10.50;4.47;;;;;;;19.30;79.42;100976.41;2032880;29;20396;-66
2022/07/23 00:33:04;;;;;;;7.00;4.20;;;;;;;19.29;79.54;100967.41;2032379;29;20508;-66
2022/07/23 00:34:06;;;;;;;6.47;4.15;;;;;;;19.29;79.66;100972.06;2017594;29;20033;-66
2022/07/23 00:35:09;;;;;;;7.80;4.40;;;;;;;19.29;79.64;100974.78;2016939;29;20057;-66
2022/07/23 00:36:11;;;;;;;8.20;4.32;;;;;;;19.28;79.74;100974.00;2024450;29;20052;-66
2022/07/23 00:37:13;;;;;;;8.88;4.18;;;;;;;19.29;79.60;100974.78;2031846;29;20060;-66
2022/07/23 00:38:15;;;;;;;7.93;4.13;;;;;;;19.28;79.59;100974.00;2032529;29;20099;-66
2022/07/23 00:39:22;;;;;;;10.05;4.97;;;;;;;19.28;79.86;100973.19;2025396;29;20945;-66
2022/07/23 00:40:31;;;;;;;8.10;4.38;;;;;;;19.27;79.75;100975.13;2030608;29;20059;-66
2022/07/23 00:41:36;;;;;;;7.85;4.50;;;;;;;19.28;79.58;100973.19;2026663;29;20056;-66
2022/07/23 00:42:38;;;;;;;12.80;5.32;;;;;;;19.27;79.69;100971.63;2032129;29;20052;-66
2022/07/23 00:43:47;;;;;;;14.55;5.10;;;;;;;19.27;79.80;100974.34;2032059;29;20044;-66
2022/07/23 00:44:52;;;;;;;9.70;4.70;;;;;;;19.27;79.66;100974.34;2025711;29;20056;-66
2022/07/23 00:45:56;;;;;;;8.98;4.25;;;;;;;19.27;79.91;100968.88;2024907;29;20055;-66
2022/07/23 00:47:01;;;;;;;7.75;4.72;;;;;;;19.27;79.81;100971.63;2002596;29;20057;-66
2022/07/23 00:48:02;;;;;;;8.02;4.60;;;;;;;19.28;79.64;100965.03;2010122;29;20041;-66
2022/07/23 00:49:03;;;;;;;14.60;4.85;;;;;;;19.27;79.89;100968.88;2024418;29;20043;-66
2022/07/23 00:50:10;;;;;;;8.63;4.63;;;;;;;19.25;79.84;100961.03;2016571;29;20568;-66
2022/07/23 00:51:15;;;;;;;10.93;4.65;;;;;;;19.27;79.90;100968.88;2023930;29;20052;-66
2022/07/23 00:52:22;;;;;;;8.15;4.53;;;;;;;19.25;80.02;100963.75;2025018;29;20500;-66
2022/07/23 00:53:27;;;;;;;10.07;5.50;;;;;;;19.25;79.83;100960.22;2025964;29;20067;-66
2022/07/23 00:54:33;;;;;;;9.70;4.30;;;;;;;19.25;79.91;100963.75;2032147;29;20335;-68
2022/07/23 00:55:35;;;;;;;9.13;4.35;;;;;;;19.24;79.84;100959.44;2031690;29;20603;-65
2022/07/23 00:56:43;;;;;;;9.07;4.38;;;;;;;19.24;79.89;100959.44;2032308;29;20044;-65
2022/07/23 00:57:45;;;;;;;8.85;4.45;;;;;;;19.25;79.73;100954.78;2032482;29;20051;-65
2022/07/23 00:58:47;;;;;;;6.55;4.28;;;;;;;19.24;79.73;100962.16;2019574;29;20048;-65
2022/07/23 00:59:53;;;;;;;11.60;4.70;;;;;;;19.25;79.82;100960.22;2024039;29;20040;-65
2022/07/23 01:00:56;;;;;;;13.07;4.90;;;;;;;19.25;79.90;100954.78;2012224;29;20139;-66
2022/07/23 01:02:01;;;;;;;8.27;4.65;;;;;;;19.25;79.63;100961.03;2009590;29;20049;-66
2022/07/23 01:03:06;;;;;;;7.50;4.32;;;;;;;19.25;79.50;100954.78;2008780;29;20038;-66
2022/07/23 01:04:08;;;;;;;14.32;4.57;;;;;;;19.25;79.50;100960.22;2009810;29;20140;-66
2022/07/23 01:05:09;;;;;;;10.18;4.50;;;;;;;19.24;79.37;100959.44;2016189;29;20049;-65
2022/07/23 01:06:17;;;;;;;16.48;5.05;;;;;;;19.25;79.42;100965.69;2009712;29;20068;-65
2022/07/23 01:07:21;;;;;;;11.68;4.63;;;;;;;19.24;79.47;100964.88;2017378;29;20260;-66
2022/07/23 01:08:26;;;;;;;9.05;4.32;;;;;;;19.25;79.36;100954.78;2024242;29;20056;-66
2022/07/23 01:09:33;;;;;;;10.73;4.38;;;;;;;19.24;79.40;100958.63;2032048;29;20040;-65
2022/07/23 01:10:36;;;;;;;6.05;4.07;;;;;;;19.23;79.42;100952.38;2024998;29;20049;-66
2022/07/23 01:11:45;;;;;;;7.70;4.25;;;;;;;19.23;79.32;100957.84;2016995;29;20056;-65
2022/07/23 01:12:46;;;;;;;6.93;4.47;;;;;;;19.23;79.35;100963.28;2025377;29;20036;-66
2022/07/23 01:13:51;;;;;;;7.45;4.22;;;;;;;19.24;79.64;100964.88;2032043;29;20043;-65
2022/07/23 01:14:57;;;;;;;9.57;4.63;;;;;;;19.23;79.49;100957.84;2016668;29;20036;-66
2022/07/23 01:15:58;;;;;;;8.52;3.85;;;;;;;19.21;79.52;100955.44;2025171;29;20048;-65
2022/07/23 01:17:00;;;;;;;6.78;4.50;;;;;;;19.20;79.93;100953.84;2016567;29;20057;-65
2022/07/23 01:18:09;;;;;;;9.65;4.10;;;;;;;19.19;79.72;100952.22;2017463;29;20048;-65
2022/07/23 01:19:18;;;;;;;5.75;4.07;;;;;;;19.20;79.78;100947.59;2022031;29;20049;-65
2022/07/23 01:20:19;;;;;;;6.68;4.35;;;;;;;19.19;79.67;100949.50;2025530;29;20488;-65
2022/07/23 01:21:22;;;;;;;9.68;4.13;;;;;;;19.18;79.80;100950.63;2032241;29;20722;-66
2022/07/23 01:22:31;;;;;;;8.43;4.65;;;;;;;19.17;79.73;100954.50;2023829;29;20052;-65
2022/07/23 01:23:37;;;;;;;12.25;4.72;;;;;;;19.16;79.63;100947.41;2025924;29;20049;-65
2022/07/23 01:24:39;;;;;;;10.02;4.45;;;;;;;19.16;79.50;100952.06;2016948;29;20052;-65
2022/07/23 01:25:54;;;;;;;7.32;4.05;;;;;;;19.15;79.48;100953.22;2017495;29;20064;-65
2022/07/23 01:27:01;;;;;;;6.72;3.65;;;;;;;19.14;79.27;100946.97;2011057;29;20052;-65
2022/07/23 01:28:06;;;;;;;12.38;4.50;;;;;;;19.14;79.05;100946.97;2011341;29;20057;-66
2022/07/23 01:29:09;;;;;;;7.32;4.60;;;;;;;19.13;78.90;100948.06;2025106;29;20080;-66
2022/07/23 01:30:16;;;;;;;7.68;4.50;;;;;;;19.12;79.04;100946.47;2024533;29;20064;-66
2022/07/23 01:31:20;;;;;;;8.10;4.47;;;;;;;19.11;78.81;100942.16;2032224;29;20052;-66
2022/07/23 01:32:25;;;;;;;9.23;4.10;;;;;;;19.11;78.84;100955.78;2024360;29;20425;-66
2022/07/23 01:33:26;;;;;;;12.27;4.50;;;;;;;19.11;78.64;100950.34;2017805;29;20045;-66
2022/07/23 01:34:30;;;;;;;7.82;4.30;;;;;;;19.11;78.83;100946.81;2024275;29;20060;-66
2022/07/23 01:35:32;;;;;;;10.20;4.22;;;;;;;19.10;78.74;100943.28;2016455;29;20529;-66
2022/07/23 01:36:39;;;;;;;8.93;4.65;;;;;;;19.08;78.82;100940.09;2010275;29;20072;-66
2022/07/23 01:37:41;;;;;;;7.80;4.05;;;;;;;19.08;79.00;100939.31;2016855;29;20068;-66
2022/07/23 01:38:45;;;;;;;5.80;4.18;;;;;;;19.07;79.06;100938.47;2017095;29;20059;-66
2022/07/23 01:39:48;;;;;;;7.38;4.07;;;;;;;19.07;79.03;100943.94;2025542;29;20048;-66
2022/07/23 01:40:55;;;;;;;7.00;4.25;;;;;;;19.06;79.18;100947.78;2025756;29;20043;-66
2022/07/23 01:42:06;;;;;;;7.35;3.92;;;;;;;19.04;79.10;100944.59;2027508;29;20473;-66
2022/07/23 01:43:11;;;;;;;6.03;4.47;;;;;;;19.04;79.09;100943.78;2018717;29;20049;-66
2022/07/23 01:44:18;;;;;;;9.15;4.50;;;;;;;19.02;79.34;100933.22;2001662;29;20831;-66
2022/07/23 01:45:21;;;;;;;8.15;4.25;;;;;;;19.02;79.07;100935.16;2017636;29;20624;-66
2022/07/23 01:46:30;;;;;;;8.93;4.43;;;;;;;19.00;78.94;100930.00;2015530;29;20410;-66
2022/07/23 01:47:35;;;;;;;6.57;4.22;;;;;;;18.99;78.84;100931.94;2010957;29;20506;-66
2022/07/23 01:48:37;;;;;;;7.60;4.30;;;;;;;18.98;79.02;100926.84;2010198;29;20446;-66
2022/07/23 01:50:06;;;;;;;6.72;4.40;;;;;;;18.97;78.75;100938.84;2008993;29;20053;-66
2022/07/23 01:51:59;;;;;;;7.97;4.38;;;;;;;18.95;78.72;100930.22;2016688;29;20056;-66
2022/07/23 01:53:02;;;;;;;7.50;4.40;;;;;;;18.93;78.92;100932.44;2018227;29;20060;-66
2022/07/23 01:54:07;;;;;;;7.25;4.18;;;;;;;18.92;78.72;100928.94;2021681;29;20505;-66
2022/07/23 01:55:09;;;;;;;8.80;4.55;;;;;;;18.91;78.74;100924.59;2021277;29;20048;-66
2022/07/23 01:56:20;;;;;;;;;;;;;;;18.88;78.95;100927.16;2010959;29;20061;-66
2022/07/23 01:57:22;;;;;;;7.57;3.92;;;;;;;18.88;79.04;100927.16;2018580;29;19930;-66
2022/07/23 01:58:28;;;;;;;8.88;4.15;;;;;;;18.86;78.75;100926.72;2016500;29;20482;-66
2022/07/23 01:59:30;;;;;;;6.03;4.10;;;;;;;18.85;78.87;100928.63;2017253;29;20437;-66
2022/07/23 02:00:35;;;;;;;7.22;4.65;;;;;;;18.84;78.97;100931.66;2016133;29;20053;-66
2022/07/23 02:01:37;;;;;;;6.50;4.10;;;;;;;18.85;78.92;100941.44;2017296;29;20045;-66
2022/07/23 02:02:38;;;;;;;10.30;4.47;;;;;;;18.84;79.05;100928.94;2031874;29;20044;-66
2022/07/23 02:03:44;;;;;;;8.75;4.45;;;;;;;18.82;79.16;100926.56;2024835;29;20056;-66
2022/07/23 02:04:46;;;;;;;10.27;5.00;;;;;;;18.81;79.02;100930.41;2016131;29;20065;-65
2022/07/23 02:05:53;;;;;;;6.53;4.18;;;;;;;18.80;78.91;100925.28;2018740;29;20032;-65
2022/07/23 02:06:57;;;;;;;7.63;4.05;;;;;;;18.79;79.12;100920.94;2016229;29;20068;-66
2022/07/23 02:08:02;;;;;;;6.05;4.13;;;;;;;18.78;79.16;100919.34;2009971;29;20513;-65
2022/07/23 02:09:11;;;;;;;6.22;4.30;;;;;;;18.77;79.22;100915.03;2017899;29;20398;-65
2022/07/23 02:10:14;;;;;;;7.88;4.20;;;;;;;18.76;79.19;100922.41;2016768;29;20406;-65
2022/07/23 02:11:21;;;;;;;9.70;4.75;;;;;;;18.74;79.07;100919.19;2016422;29;20080;-66
2022/07/23 02:12:22;;;;;;;7.95;5.28;;;;;;;18.75;79.16;100921.59;2011174;29;20057;-65
2022/07/23 02:13:28;;;;;;;7.80;4.68;;;;;;;18.73;79.25;100926.56;2024490;29;20590;-66
2022/07/23 02:14:32;;;;;;;9.63;4.38;;;;;;;18.73;79.22;100926.56;2032071;29;20047;-65
2022/07/23 02:15:39;;;;;;;8.52;4.22;;;;;;;18.73;79.29;100929.31;2024474;29;20075;-65
2022/07/23 02:16:43;;;;;;;8.73;4.40;;;;;;;18.71;79.27;100926.06;2024860;29;20051;-66
2022/07/23 02:17:47;;;;;;;8.30;5.15;;;;;;;18.71;79.25;100928.78;2014204;29;20057;-65
2022/07/23 02:18:51;;;;;;;9.07;3.88;;;;;;;18.70;79.31;100924.47;2003167;29;20494;-65
2022/07/23 02:19:56;;;;;;;7.38;4.38;;;;;;;18.68;79.21;100926.72;2016589;29;20064;-65
2022/07/23 02:20:58;;;;;;;9.50;4.40;;;;;;;18.68;79.25;100924.00;2022421;29;20044;-65
2022/07/23 02:21:59;;;;;;;10.13;4.05;;;;;;;18.68;79.33;100924.00;2008886;29;20052;-65
2022/07/23 02:23:05;;;;;;;6.88;4.32;;;;;;;18.69;79.45;100927.50;2016398;29;20398;-66
2022/07/23 02:24:07;;;;;;;10.68;4.90;;;;;;;18.68;79.27;100932.16;2021472;29;20055;-65
2022/07/23 02:25:12;;;;;;;8.38;4.55;;;;;;;18.67;79.33;100930.56;2023638;29;20529;-65
2022/07/23 02:26:20;;;;;;;8.65;5.10;;;;;;;18.65;79.14;100927.34;2030041;29;20052;-65
2022/07/23 02:27:25;;;;;;;12.35;4.57;;;;;;;18.65;79.08;100916.47;2024753;29;20548;-66
2022/07/23 02:28:30;;;;;;;8.27;5.32;;;;;;;18.63;79.23;100926.91;2015423;29;20052;-66
2022/07/23 02:29:35;;;;;;;8.07;4.70;;;;;;;18.58;79.09;100915.38;2010115;29;20045;-66
2022/07/23 02:30:40;;;;;;;8.50;4.35;;;;;;;18.60;nan;100924.81;2016125;29;20044;-66
2022/07/23 02:31:46;;;;;;;8.85;4.30;;;;;;;18.61;79.07;100925.63;2022053;29;20041;-66
2022/07/23 02:32:52;;;;;;;10.05;4.93;;;;;;;18.60;79.16;100929.44;2016534;29;20101;-66
2022/07/23 02:33:59;;;;;;;10.38;4.40;;;;;;;18.58;79.21;100929.78;2024585;29;20040;-66
2022/07/23 02:35:04;;;;;;;9.75;5.00;;;;;;;18.58;79.06;100932.50;2024110;29;20053;-67
2022/07/23 02:36:09;;;;;;;8.48;4.45;;;;;;;18.58;79.13;100926.25;2024489;29;20049;-66
2022/07/23 02:37:15;;;;;;;7.68;4.40;;;;;;;18.56;79.23;100929.28;2026860;29;20063;-67
2022/07/23 02:38:17;;;;;;;10.05;4.40;;;;;;;18.55;79.05;100933.16;2024227;29;20057;-67
2022/07/23 02:39:27;;;;;;;8.43;5.03;;;;;;;18.54;79.48;100934.28;2026580;29;20071;-67
2022/07/23 02:40:28;;;;;;;7.25;4.38;;;;;;;18.54;79.15;100939.72;2015169;29;20057;-66
2022/07/23 02:41:38;;;;;;;8.10;4.68;;;;;;;18.54;79.27;100937.00;2007478;29;20049;-66
2022/07/23 02:42:44;;;;;;;9.25;4.60;;;;;;;18.53;79.32;100933.47;2011701;29;20046;-66
2022/07/23 02:43:52;;;;;;;9.65;4.88;;;;;;;18.52;79.32;100937.31;2031970;29;20079;-66
2022/07/23 02:44:58;;;;;;;9.20;4.38;;;;;;;18.52;79.12;100933.78;2023860;29;20052;-66
2022/07/23 02:46:04;;;;;;;9.30;5.13;;;;;;;18.51;79.13;100937.66;2025070;29;20067;-66
2022/07/23 02:47:08;;;;;;;10.93;4.55;;;;;;;18.50;79.31;100942.28;2030815;29;20092;-66
2022/07/23 02:48:14;;;;;;;9.52;4.85;;;;;;;18.50;79.38;100941.47;2023956;29;20079;-66
2022/07/23 02:49:21;;;;;;;7.43;4.65;;;;;;;18.51;79.31;100929.47;2025651;29;20488;-66
2022/07/23 02:50:26;;;;;;;10.65;4.95;;;;;;;18.49;79.29;100929.00;2024285;29;20425;-66
2022/07/23 02:51:31;;;;;;;9.65;5.55;;;;;;;18.49;79.28;100929.00;2024517;29;20527;-66
2022/07/23 02:52:41;;;;;;;7.70;4.72;;;;;;;18.48;79.30;100930.91;2024715;29;20512;-66
2022/07/23 02:53:42;;;;;;;9.93;4.63;;;;;;;18.48;79.22;100927.41;2016656;29;20466;-66
2022/07/23 02:54:46;;;;;;;8.18;4.85;;;;;;;18.47;79.51;100925.78;2016309;29;20040;-66
2022/07/23 02:55:54;;;;;;;9.07;5.20;;;;;;;18.47;79.36;100926.59;2016428;29;20056;-66
2022/07/23 02:56:59;;;;;;;6.90;4.75;;;;;;;18.47;79.50;100925.78;2009440;29;20061;-66
2022/07/23 02:58:07;;;;;;;8.93;5.00;;;;;;;18.46;79.60;100927.72;2017681;29;20045;-67
2022/07/23 02:59:11;;;;;;;10.27;5.03;;;;;;;18.46;79.52;100924.19;2023014;29;20056;-67
2022/07/23 03:00:16;;;;;;;8.98;5.15;;;;;;;18.46;79.58;100924.19;2016161;29;20065;-67
2022/07/23 03:01:17;;;;;;;10.23;5.22;;;;;;;18.46;79.92;100925.00;2002080;29;20056;-66
2022/07/23 03:02:24;;;;;;;11.90;5.13;;;;;;;18.47;79.93;100929.34;2024596;29;20037;-66
2022/07/23 03:03:28;;;;;;;9.02;5.05;;;;;;;18.48;79.86;100921.97;2025886;29;20059;-66
2022/07/23 03:04:34;;;;;;;8.98;5.22;;;;;;;18.49;79.93;100924.34;2022818;29;20121;-66
2022/07/23 03:05:38;;;;;;;9.55;4.72;;;;;;;18.50;79.58;100925.94;2016203;29;20080;-66
2022/07/23 03:06:40;;;;;;;10.27;5.03;;;;;;;18.50;79.87;100928.66;2023011;29;20057;-66
2022/07/23 03:07:41;;;;;;;9.60;4.90;;;;;;;18.51;79.69;100926.75;2016276;29;20045;-66
2022/07/23 03:08:44;;;;;;;11.40;5.40;;;;;;;18.51;79.76;100926.75;2015732;29;20552;-67
2022/07/23 03:09:50;;;;;;;7.25;4.72;;;;;;;18.52;79.80;100928.34;2024421;29;20056;-66
2022/07/23 03:10:51;;;;;;;10.60;4.75;;;;;;;18.52;79.74;100926.41;2023931;29;20113;-66
2022/07/23 03:11:53;;;;;;;8.95;4.50;;;;;;;18.53;79.71;100929.94;2023910;29;20052;-66
2022/07/23 03:12:56;;;;;;;7.32;4.57;;;;;;;18.55;79.83;100930.44;2023502;29;20057;-66
2022/07/23 03:13:58;;;;;;;9.35;4.93;;;;;;;18.55;79.82;100924.19;2022109;29;20041;-66
2022/07/23 03:15:07;;;;;;;8.02;4.50;;;;;;;18.55;79.54;100927.69;2016175;29;20041;-66
2022/07/23 03:16:18;;;;;;;9.50;5.00;;;;;;;18.58;79.70;100920.81;2006188;29;20434;-66
2022/07/23 03:17:20;;;;;;;9.30;4.70;;;;;;;18.59;79.70;100922.41;2027789;29;20055;-66
2022/07/23 03:18:30;;;;;;;7.70;4.80;;;;;;;18.60;79.90;100922.09;2039008;29;20048;-66
2022/07/23 03:19:34;;;;;;;9.55;4.85;;;;;;;18.62;79.96;100921.75;2017617;29;20524;-66
2022/07/23 03:20:38;;;;;;;13.55;5.22;;;;;;;18.63;79.84;100923.34;2009650;29;20077;-66
2022/07/23 03:21:42;;;;;;;8.55;5.20;;;;;;;18.66;79.77;100922.72;2016871;29;20406;-66
2022/07/23 03:22:43;;;;;;;7.03;4.63;;;;;;;18.69;79.77;100924.78;2015633;29;20064;-66
2022/07/23 03:23:45;;;;;;;8.98;4.80;;;;;;;18.70;79.59;100932.66;2015720;29;20068;-66
2022/07/23 03:24:54;;;;;;;8.90;4.70;;;;;;;18.73;79.51;100931.22;2023741;29;20045;-66
2022/07/23 03:26:03;;;;;;;8.60;5.15;;;;;;;18.74;79.35;100920.00;2010160;29;20041;-66
2022/07/23 03:27:06;;;;;;;11.55;5.30;;;;;;;18.78;79.24;100925.59;2017891;29;20067;-66
2022/07/23 03:28:15;;;;;;;8.27;4.90;;;;;;;18.80;79.45;100928.81;2016175;29;20053;-66
2022/07/23 03:29:19;;;;;;;8.43;5.00;;;;;;;18.84;79.20;100928.94;2008672;29;20065;-66
2022/07/23 03:30:22;;;;;;;8.68;5.18;;;;;;;18.87;78.90;100917.41;2009605;29;20053;-66
2022/07/23 03:31:27;;;;;;;11.13;5.28;;;;;;;18.90;78.98;100922.19;2016669;29;20064;-66
2022/07/23 03:32:31;;;;;;;11.30;5.25;;;;;;;18.93;78.77;100921.56;2016601;29;20068;-66
2022/07/23 03:33:33;;;;;;;9.48;4.78;;;;;;;18.96;78.85;100920.91;2022236;29;20068;-65
2022/07/23 03:34:35;;;;;;;8.52;4.57;;;;;;;18.97;78.64;100923.28;2025312;29;20056;-66
2022/07/23 03:35:39;;;;;;;8.77;4.97;;;;;;;19.00;78.45;100921.84;2025169;29;20068;-66
2022/07/23 03:37:00;;;;;;;8.05;4.43;;;;;;;19.04;78.28;100917.34;2022279;29;20051;-66
2022/07/23 03:38:04;;;;;;;8.45;4.70;;;;;;;19.09;78.09;100921.81;2025374;29;20052;-66
2022/07/23 03:39:07;;;;;;;7.57;4.55;;;;;;;19.12;77.88;100923.88;2021883;29;20139;-66
2022/07/23 03:40:11;;;;;;;7.97;4.72;;;;;;;19.16;77.96;100925.63;2030281;29;20040;-66
2022/07/23 03:41:14;;;;;;;11.30;4.75;;;;;;;19.20;77.71;100928.50;2024647;29;20072;-66
2022/07/23 03:42:16;;;;;;;9.55;5.05;;;;;;;19.24;77.80;100926.72;1997248;29;20049;-66
2022/07/23 03:43:24;;;;;;;7.55;4.75;;;;;;;19.27;77.59;100928.78;2010161;29;20065;-66
2022/07/23 03:44:26;;;;;;;8.68;4.57;;;;;;;19.31;77.35;100927.00;2019336;29;20060;-66
2022/07/23 03:45:33;;;;;;;12.63;4.93;;;;;;;19.33;77.17;100930.22;2032532;29;20063;-66
2022/07/23 03:46:43;;;;;;;12.60;5.13;;;;;;;19.37;77.24;100924.88;2018746;29;20041;-67
2022/07/23 03:47:47;;;;;;;;;;;;;;;19.39;76.67;100926.16;2012504;29;20033;-67
2022/07/23 03:48:49;;;;;;;10.82;4.60;;;;;;;19.43;76.62;100916.19;2010455;29;20415;-66
2022/07/23 03:49:55;;;;;;;9.43;4.85;;;;;;;19.46;76.55;100912.00;2014375;29;20053;-66
2022/07/23 03:51:00;;;;;;;7.28;4.57;;;;;;;19.50;76.58;100906.69;2018531;29;20060;-67
2022/07/23 03:52:05;;;;;;;6.97;4.78;;;;;;;19.53;76.68;100912.28;2018604;29;20429;-66
2022/07/23 03:53:13;;;;;;;7.45;4.53;;;;;;;19.57;76.55;100913.22;2024696;29;20053;-66
2022/07/23 03:54:17;;;;;;;10.73;4.90;;;;;;;19.61;76.26;100914.16;2025048;29;20045;-66
2022/07/23 03:55:21;;;;;;;7.78;4.68;;;;;;;19.66;76.23;100910.47;2009331;29;20560;-66
2022/07/23 03:56:28;;;;;;;8.13;4.72;;;;;;;19.70;75.83;100911.41;2018535;29;20045;-66
2022/07/23 03:57:30;;;;;;;10.85;4.80;;;;;;;19.75;75.79;100913.16;2017436;29;20061;-66
2022/07/23 03:58:32;;;;;;;9.05;5.10;;;;;;;19.79;75.75;100914.06;2002226;29;20049;-66
2022/07/23 03:59:34;;;;;;;9.82;4.75;;;;;;;19.83;75.81;100915.00;2002701;29;20049;-66
2022/07/23 04:00:36;;;;;;;9.80;4.40;;;;;;;19.87;75.63;100916.75;2017152;29;20057;-67
2022/07/23 04:01:41;;;;;;;11.93;5.00;;;;;;;19.93;75.36;100917.34;2024930;29;20055;-66
2022/07/23 04:02:48;;;;;;;6.47;4.07;;;;;;;19.96;75.16;100913.94;2022804;29;20041;-66
2022/07/23 04:03:52;;;;;;;9.70;4.57;;;;;;;20.01;75.05;100916.47;2019129;29;20060;-66
2022/07/23 04:04:57;;;;;;;10.75;4.85;;;;;;;20.05;74.89;100922.88;2009683;29;20041;-66
2022/07/23 04:05:58;;;;;;;9.80;4.82;;;;;;;20.07;74.88;100914.34;2010662;29;20045;-66
2022/07/23 04:07:09;;;;;;;10.88;5.35;;;;;;;20.12;74.64;100919.59;2025422;29;20037;-66
2022/07/23 04:08:13;;;;;;;7.05;4.55;;;;;;;20.16;74.47;100914.28;2026025;29;20037;-66
2022/07/23 04:09:21;;;;;;;6.22;4.20;;;;;;;20.23;74.44;100922.72;2025122;29;20056;-66
2022/07/23 04:10:23;;;;;;;9.80;4.70;;;;;;;20.28;74.33;100919.78;2014893;29;20048;-65
2022/07/23 04:11:24;;;;;;;6.78;4.35;;;;;;;20.31;74.13;100914.44;2020362;29;20045;-66
2022/07/23 04:12:31;;;;;;;16.38;4.45;;;;;;;20.35;74.05;100914.56;2025230;29;20040;-65
2022/07/23 04:13:32;;;;;;;9.52;4.25;;;;;;;20.40;73.85;100911.66;2024823;29;20049;-65
2022/07/23 04:14:40;;;;;;;12.73;4.30;;;;;;;20.46;73.86;100915.75;2024928;29;20389;-65
2022/07/23 04:15:44;;;;;;;7.03;4.18;;;;;;;20.48;73.19;100902.53;2025138;29;20040;-65
2022/07/23 04:16:51;;;;;;;10.68;4.07;;;;;;;20.54;72.97;100912.16;2016623;29;20061;-65
2022/07/23 04:17:55;;;;;;;6.63;4.13;;;;;;;20.58;72.75;100907.59;2025800;29;20049;-65
2022/07/23 04:19:06;;;;;;;8.50;4.20;;;;;;;20.60;72.22;100908.06;2017188;29;20056;-66
2022/07/23 04:20:19;;;;;;;8.07;4.22;;;;;;;20.66;71.88;100913.34;2020396;29;20069;-65
2022/07/23 04:21:32;;;;;;;9.27;4.40;;;;;;;20.71;71.90;100907.63;2030719;29;20052;-66
2022/07/23 04:22:37;;;;;;;7.57;4.40;;;;;;;20.76;71.70;100907.44;2022838;29;20084;-65
2022/07/23 04:23:39;;;;;;;10.52;4.43;;;;;;;20.80;71.46;100906.41;2029321;29;20056;-64
2022/07/23 04:24:49;;;;;;;8.57;4.30;;;;;;;20.87;71.31;100911.34;2032084;29;20040;-64
2022/07/23 04:25:52;;;;;;;8.65;4.32;;;;;;;20.91;71.30;100906.78;2017645;29;20052;-64
2022/07/23 04:26:56;;;;;;;6.32;4.00;;;;;;;20.95;71.31;100904.94;2009953;29;20048;-64
2022/07/23 04:27:57;;;;;;;10.57;4.32;;;;;;;21.01;71.17;100909.06;2001954;29;20056;-64
2022/07/23 04:28:59;;;;;;;8.55;4.00;;;;;;;21.05;70.94;100899.03;2001716;29;20042;-64
2022/07/23 04:30:01;;;;;;;9.43;4.50;;;;;;;21.12;70.97;100906.66;2024701;29;20048;-64
2022/07/23 04:31:05;;;;;;;9.43;4.22;;;;;;;21.18;70.92;100904.50;2017243;29;20052;-64
2022/07/23 04:32:13;;;;;;;10.52;4.40;;;;;;;21.23;70.68;100899.63;2003802;29;20054;-64
2022/07/23 04:33:19;;;;;;;8.95;3.90;;;;;;;21.30;70.60;100907.25;2011334;29;20069;-63
2022/07/23 04:34:23;;;;;;;10.00;3.90;;;;;;;21.35;70.25;100909.78;2011097;29;20065;-66
2022/07/23 04:35:28;;;;;;;8.85;4.03;;;;;;;21.41;69.95;100905.69;2017741;29;20078;-63
2022/07/23 04:36:43;;;;;;;10.70;4.30;;;;;;;21.49;69.55;100909.44;2020238;29;20041;-63
2022/07/23 04:37:47;;;;;;;11.35;5.45;;;;;;;21.58;69.44;100901.09;2025505;29;20052;-64
2022/07/23 04:38:50;;;;;;;7.80;4.65;;;;;;;21.67;69.16;100901.78;2012143;29;20053;-64
2022/07/23 04:39:57;;;;;;;6.85;4.00;;;;;;;21.75;68.67;100898.91;2023315;29;20041;-64
2022/07/23 04:41:03;;;;;;;10.75;5.03;;;;;;;21.86;68.54;100895.69;2017820;29;20513;-64
2022/07/23 04:42:04;;;;;;;13.63;6.88;;;;;;;21.92;68.20;100895.09;2015877;29;20033;-64
2022/07/23 04:43:10;;;;;;;11.55;5.32;;;;;;;21.96;68.03;100885.03;2024072;29;20512;-64
2022/07/23 04:44:18;;;;;;;13.80;7.43;;;;;;;22.00;67.80;100885.13;2023065;29;20723;-63
2022/07/23 04:45:25;;;;;;;10.27;5.60;;;;;;;22.03;67.58;100881.69;2024238;29;20060;-63
2022/07/23 04:46:27;;;;;;;12.85;5.00;;;;;;;22.06;67.46;100886.47;2002026;29;20038;-64
2022/07/23 04:47:31;;;;;;;10.00;4.90;;;;;;;22.09;67.08;100883.03;2017768;29;20064;-65
2022/07/23 04:48:33;;;;;;;9.25;5.03;;;;;;;22.11;67.05;100882.69;2024391;29;20044;-63
2022/07/23 04:49:44;;;;;;;13.65;5.40;;;;;;;22.12;67.00;100879.59;2010794;29;20061;-64
2022/07/23 04:50:46;;;;;;;12.23;4.75;;;;;;;22.18;66.96;100888.41;2003065;29;20053;-64
2022/07/23 04:51:58;;;;;;;7.50;4.20;;;;;;;22.19;66.50;100890.81;2017845;29;20073;-64
